Terminal Aerodrome Forecast
Issued by NWS

Home | Current Version | Previous Version | Text Only | Print | Product List | Glossary Off
Versions: 1 2 3 4 5 6 7 8 9 10 11 12 13 14 15 16 17 18 19 20 21 22 23 24 25 26 27 28 29

000
FTUS43 KABR 280221 AAA
TAFMBG
TAF AMD
KMBG 280221Z 2802/2824 13018G24KT P6SM BKN200
     FM280300 14015G24KT P6SM VCTS SCT050CB OVC100
      TEMPO 2803/2804 VRB20G45KT 1SM TSRA OVC050CB
     FM280900 30025G35KT P6SM BKN200=

USA.gov is the U.S. government's official web portal to all federal, state and local government web resources and services.